sensor_id;sensor_type;location;lat;lon;timestamp;temperature;humidity
18412;DHT22;27097;51.738;19.472;2022-08-04T00:01:00;25.30;66.90
18412;DHT22;27097;51.738;19.472;2022-08-04T00:03:33;25.30;66.90
18412;DHT22;27097;51.738;19.472;2022-08-04T00:06:13;25.30;67.00
18412;DHT22;27097;51.738;19.472;2022-08-04T00:08:45;25.30;66.90
18412;DHT22;27097;51.738;19.472;2022-08-04T00:11:15;25.30;67.10
18412;DHT22;27097;51.738;19.472;2022-08-04T00:13:51;25.30;67.10
18412;DHT22;27097;51.738;19.472;2022-08-04T00:16:22;25.30;66.70
18412;DHT22;27097;51.738;19.472;2022-08-04T00:18:56;25.30;67.10
18412;DHT22;27097;51.738;19.472;2022-08-04T00:21:25;25.20;67.00
18412;DHT22;27097;51.738;19.472;2022-08-04T00:23:54;25.20;67.00
18412;DHT22;27097;51.738;19.472;2022-08-04T00:26:21;25.30;67.10
18412;DHT22;27097;51.738;19.472;2022-08-04T00:28:49;25.20;67.10
18412;DHT22;27097;51.738;19.472;2022-08-04T00:31:17;25.20;66.90
18412;DHT22;27097;51.738;19.472;2022-08-04T00:33:45;25.20;67.00
18412;DHT22;27097;51.738;19.472;2022-08-04T00:36:14;25.20;66.80
18412;DHT22;27097;51.738;19.472;2022-08-04T00:38:41;25.20;66.90
18412;DHT22;27097;51.738;19.472;2022-08-04T00:41:18;25.20;66.90
18412;DHT22;27097;51.738;19.472;2022-08-04T00:44:03;25.20;67.10
18412;DHT22;27097;51.738;19.472;2022-08-04T00:46:45;25.10;66.90
18412;DHT22;27097;51.738;19.472;2022-08-04T00:52:25;25.10;66.80
18412;DHT22;27097;51.738;19.472;2022-08-04T00:55:08;25.10;67.60
18412;DHT22;27097;51.738;19.472;2022-08-04T00:57:54;25.10;67.00
18412;DHT22;27097;51.738;19.472;2022-08-04T01:00:23;25.10;67.10
18412;DHT22;27097;51.738;19.472;2022-08-04T01:03:00;25.10;67.10
18412;DHT22;27097;51.738;19.472;2022-08-04T01:05:40;25.10;67.30
18412;DHT22;27097;51.738;19.472;2022-08-04T01:08:26;25.10;67.20
18412;DHT22;27097;51.738;19.472;2022-08-04T01:11:03;25.10;66.90
18412;DHT22;27097;51.738;19.472;2022-08-04T01:13:55;25.10;67.00
18412;DHT22;27097;51.738;19.472;2022-08-04T01:16:25;25.10;67.20
18412;DHT22;27097;51.738;19.472;2022-08-04T01:18:58;25.10;67.40
18412;DHT22;27097;51.738;19.472;2022-08-04T01:21:59;25.10;67.40
18412;DHT22;27097;51.738;19.472;2022-08-04T01:24:50;25.10;67.10
18412;DHT22;27097;51.738;19.472;2022-08-04T01:27:26;25.00;67.40
18412;DHT22;27097;51.738;19.472;2022-08-04T01:30:01;25.00;67.40
18412;DHT22;27097;51.738;19.472;2022-08-04T01:32:31;25.00;67.20
18412;DHT22;27097;51.738;19.472;2022-08-04T01:35:03;25.00;67.30
18412;DHT22;27097;51.738;19.472;2022-08-04T01:37:46;25.00;67.40
18412;DHT22;27097;51.738;19.472;2022-08-04T01:40:14;25.00;67.40
18412;DHT22;27097;51.738;19.472;2022-08-04T01:42:43;25.00;67.60
18412;DHT22;27097;51.738;19.472;2022-08-04T01:45:13;25.00;67.50
18412;DHT22;27097;51.738;19.472;2022-08-04T01:47:42;25.00;67.60
18412;DHT22;27097;51.738;19.472;2022-08-04T01:50:10;25.00;67.50
18412;DHT22;27097;51.738;19.472;2022-08-04T01:52:39;24.90;67.70
18412;DHT22;27097;51.738;19.472;2022-08-04T01:55:10;24.90;67.70
18412;DHT22;27097;51.738;19.472;2022-08-04T01:57:41;24.90;67.50
18412;DHT22;27097;51.738;19.472;2022-08-04T02:00:09;24.90;68.10
18412;DHT22;27097;51.738;19.472;2022-08-04T02:02:38;24.90;67.60
18412;DHT22;27097;51.738;19.472;2022-08-04T02:05:09;24.90;67.70
18412;DHT22;27097;51.738;19.472;2022-08-04T02:08:04;24.90;67.60
18412;DHT22;27097;51.738;19.472;2022-08-04T02:10:53;24.90;67.70
18412;DHT22;27097;51.738;19.472;2022-08-04T02:13:30;24.90;68.00
18412;DHT22;27097;51.738;19.472;2022-08-04T02:16:02;24.90;68.10
18412;DHT22;27097;51.738;19.472;2022-08-04T02:18:36;24.90;68.10
18412;DHT22;27097;51.738;19.472;2022-08-04T02:21:07;24.90;67.80
18412;DHT22;27097;51.738;19.472;2022-08-04T02:23:36;24.80;67.90
18412;DHT22;27097;51.738;19.472;2022-08-04T02:26:05;24.80;68.30
18412;DHT22;27097;51.738;19.472;2022-08-04T02:28:35;24.80;68.30
18412;DHT22;27097;51.738;19.472;2022-08-04T02:31:18;24.80;68.30
18412;DHT22;27097;51.738;19.472;2022-08-04T02:33:53;24.80;68.40
18412;DHT22;27097;51.738;19.472;2022-08-04T02:36:26;24.80;68.30
18412;DHT22;27097;51.738;19.472;2022-08-04T02:38:58;24.80;68.10
18412;DHT22;27097;51.738;19.472;2022-08-04T02:41:27;24.80;68.20
18412;DHT22;27097;51.738;19.472;2022-08-04T02:43:57;24.70;68.30
18412;DHT22;27097;51.738;19.472;2022-08-04T02:46:24;24.80;68.50
18412;DHT22;27097;51.738;19.472;2022-08-04T02:48:53;24.70;68.30
18412;DHT22;27097;51.738;19.472;2022-08-04T02:51:26;24.70;68.60
18412;DHT22;27097;51.738;19.472;2022-08-04T02:53:55;24.70;68.70
18412;DHT22;27097;51.738;19.472;2022-08-04T02:56:24;24.70;68.70
18412;DHT22;27097;51.738;19.472;2022-08-04T02:58:53;24.70;68.90
18412;DHT22;27097;51.738;19.472;2022-08-04T03:01:22;24.70;68.60
18412;DHT22;27097;51.738;19.472;2022-08-04T03:04:00;24.70;68.70
18412;DHT22;27097;51.738;19.472;2022-08-04T03:07:15;24.70;69.50
18412;DHT22;27097;51.738;19.472;2022-08-04T03:13:33;24.70;68.80
18412;DHT22;27097;51.738;19.472;2022-08-04T03:16:41;24.70;68.50
18412;DHT22;27097;51.738;19.472;2022-08-04T03:19:45;24.70;68.30
18412;DHT22;27097;51.738;19.472;2022-08-04T03:22:34;24.60;68.50
18412;DHT22;27097;51.738;19.472;2022-08-04T03:25:29;24.60;68.30
18412;DHT22;27097;51.738;19.472;2022-08-04T03:31:31;24.60;68.50
18412;DHT22;27097;51.738;19.472;2022-08-04T03:34:21;24.60;68.40
18412;DHT22;27097;51.738;19.472;2022-08-04T03:37:18;24.60;68.50
18412;DHT22;27097;51.738;19.472;2022-08-04T03:46:43;24.50;68.20
18412;DHT22;27097;51.738;19.472;2022-08-04T03:49:35;24.50;68.20
18412;DHT22;27097;51.738;19.472;2022-08-04T03:52:16;24.50;68.20
18412;DHT22;27097;51.738;19.472;2022-08-04T03:55:29;24.50;68.50
18412;DHT22;27097;51.738;19.472;2022-08-04T04:01:29;24.50;68.20
18412;DHT22;27097;51.738;19.472;2022-08-04T04:04:27;24.50;68.30
18412;DHT22;27097;51.738;19.472;2022-08-04T04:10:40;24.50;68.20
18412;DHT22;27097;51.738;19.472;2022-08-04T04:16:30;24.50;68.40
18412;DHT22;27097;51.738;19.472;2022-08-04T04:22:16;24.50;68.50
18412;DHT22;27097;51.738;19.472;2022-08-04T04:25:04;24.50;68.30
18412;DHT22;27097;51.738;19.472;2022-08-04T04:27:42;24.60;68.00
18412;DHT22;27097;51.738;19.472;2022-08-04T04:30:16;24.60;67.80
18412;DHT22;27097;51.738;19.472;2022-08-04T04:33:00;24.60;68.10
18412;DHT22;27097;51.738;19.472;2022-08-04T04:35:36;24.50;67.60
18412;DHT22;27097;51.738;19.472;2022-08-04T04:38:28;24.60;67.80
18412;DHT22;27097;51.738;19.472;2022-08-04T04:41:04;24.60;67.60
18412;DHT22;27097;51.738;19.472;2022-08-04T04:44:21;24.60;67.70
18412;DHT22;27097;51.738;19.472;2022-08-04T04:47:00;24.60;67.90
18412;DHT22;27097;51.738;19.472;2022-08-04T04:49:34;24.60;67.40
18412;DHT22;27097;51.738;19.472;2022-08-04T04:52:05;24.60;67.80
18412;DHT22;27097;51.738;19.472;2022-08-04T04:54:38;24.60;67.60
18412;DHT22;27097;51.738;19.472;2022-08-04T04:57:10;24.60;67.60
18412;DHT22;27097;51.738;19.472;2022-08-04T04:59:46;24.60;67.80
18412;DHT22;27097;51.738;19.472;2022-08-04T05:02:39;24.60;66.90
18412;DHT22;27097;51.738;19.472;2022-08-04T05:05:27;24.60;67.70
18412;DHT22;27097;51.738;19.472;2022-08-04T05:08:32;24.70;67.50
18412;DHT22;27097;51.738;19.472;2022-08-04T05:11:29;24.70;67.00
18412;DHT22;27097;51.738;19.472;2022-08-04T05:14:03;24.70;66.10
18412;DHT22;27097;51.738;19.472;2022-08-04T05:16:36;24.70;66.30
18412;DHT22;27097;51.738;19.472;2022-08-04T05:19:22;24.70;66.90
18412;DHT22;27097;51.738;19.472;2022-08-04T05:21:58;24.80;66.50
18412;DHT22;27097;51.738;19.472;2022-08-04T05:24:27;24.80;66.70
18412;DHT22;27097;51.738;19.472;2022-08-04T05:26:57;24.80;65.90
18412;DHT22;27097;51.738;19.472;2022-08-04T05:29:28;24.90;66.50
18412;DHT22;27097;51.738;19.472;2022-08-04T05:32:00;24.90;66.70
18412;DHT22;27097;51.738;19.472;2022-08-04T05:34:32;24.90;66.20
18412;DHT22;27097;51.738;19.472;2022-08-04T05:37:07;25.00;66.80
18412;DHT22;27097;51.738;19.472;2022-08-04T05:39:45;25.00;66.80
18412;DHT22;27097;51.738;19.472;2022-08-04T05:42:14;25.00;66.40
18412;DHT22;27097;51.738;19.472;2022-08-04T05:44:42;25.10;65.90
18412;DHT22;27097;51.738;19.472;2022-08-04T05:47:12;25.10;67.00
18412;DHT22;27097;51.738;19.472;2022-08-04T05:49:41;25.10;65.70
18412;DHT22;27097;51.738;19.472;2022-08-04T05:52:10;25.20;66.30
18412;DHT22;27097;51.738;19.472;2022-08-04T05:54:38;25.20;66.70
18412;DHT22;27097;51.738;19.472;2022-08-04T05:57:06;25.20;66.50
18412;DHT22;27097;51.738;19.472;2022-08-04T05:59:38;25.30;66.30
18412;DHT22;27097;51.738;19.472;2022-08-04T06:02:08;25.30;65.80
18412;DHT22;27097;51.738;19.472;2022-08-04T06:04:39;25.40;65.50
18412;DHT22;27097;51.738;19.472;2022-08-04T06:07:07;25.40;66.50
18412;DHT22;27097;51.738;19.472;2022-08-04T06:09:36;25.40;66.10
18412;DHT22;27097;51.738;19.472;2022-08-04T06:12:06;25.50;66.50
18412;DHT22;27097;51.738;19.472;2022-08-04T06:14:38;25.50;65.40
18412;DHT22;27097;51.738;19.472;2022-08-04T06:17:07;25.60;65.60
18412;DHT22;27097;51.738;19.472;2022-08-04T06:19:38;25.60;65.00
18412;DHT22;27097;51.738;19.472;2022-08-04T06:22:07;25.60;65.70
18412;DHT22;27097;51.738;19.472;2022-08-04T06:24:37;25.70;64.80
18412;DHT22;27097;51.738;19.472;2022-08-04T06:27:04;25.70;65.50
18412;DHT22;27097;51.738;19.472;2022-08-04T06:29:33;25.70;64.40
18412;DHT22;27097;51.738;19.472;2022-08-04T06:32:04;25.80;65.40
18412;DHT22;27097;51.738;19.472;2022-08-04T06:34:51;25.80;64.30
18412;DHT22;27097;51.738;19.472;2022-08-04T06:37:20;25.80;64.90
18412;DHT22;27097;51.738;19.472;2022-08-04T06:39:47;25.80;65.60
18412;DHT22;27097;51.738;19.472;2022-08-04T06:42:16;25.80;66.00
18412;DHT22;27097;51.738;19.472;2022-08-04T06:44:45;25.90;65.40
18412;DHT22;27097;51.738;19.472;2022-08-04T06:47:15;25.90;66.50
18412;DHT22;27097;51.738;19.472;2022-08-04T06:49:44;25.90;64.30
18412;DHT22;27097;51.738;19.472;2022-08-04T06:52:14;25.90;65.80
18412;DHT22;27097;51.738;19.472;2022-08-04T06:54:42;25.90;64.40
18412;DHT22;27097;51.738;19.472;2022-08-04T06:57:13;25.90;64.60
18412;DHT22;27097;51.738;19.472;2022-08-04T06:59:42;26.00;64.50
18412;DHT22;27097;51.738;19.472;2022-08-04T07:02:14;26.00;64.70
18412;DHT22;27097;51.738;19.472;2022-08-04T07:04:43;26.00;64.50
18412;DHT22;27097;51.738;19.472;2022-08-04T07:07:11;26.00;64.90
18412;DHT22;27097;51.738;19.472;2022-08-04T07:09:40;26.10;65.00
18412;DHT22;27097;51.738;19.472;2022-08-04T07:12:08;26.10;65.30
18412;DHT22;27097;51.738;19.472;2022-08-04T07:14:38;26.10;64.70
18412;DHT22;27097;51.738;19.472;2022-08-04T07:17:07;26.10;64.90
18412;DHT22;27097;51.738;19.472;2022-08-04T07:19:35;26.10;65.40
18412;DHT22;27097;51.738;19.472;2022-08-04T07:22:03;26.10;66.60
18412;DHT22;27097;51.738;19.472;2022-08-04T07:24:31;26.10;68.20
18412;DHT22;27097;51.738;19.472;2022-08-04T07:27:00;26.10;67.80
18412;DHT22;27097;51.738;19.472;2022-08-04T07:29:27;26.10;68.80
18412;DHT22;27097;51.738;19.472;2022-08-04T07:31:55;26.10;69.40
18412;DHT22;27097;51.738;19.472;2022-08-04T07:34:23;26.10;67.00
18412;DHT22;27097;51.738;19.472;2022-08-04T07:36:52;26.10;66.00
18412;DHT22;27097;51.738;19.472;2022-08-04T07:39:20;26.20;67.00
18412;DHT22;27097;51.738;19.472;2022-08-04T07:41:47;26.20;67.40
18412;DHT22;27097;51.738;19.472;2022-08-04T07:44:16;26.20;68.10
18412;DHT22;27097;51.738;19.472;2022-08-04T07:46:45;26.20;69.20
18412;DHT22;27097;51.738;19.472;2022-08-04T07:49:12;26.20;68.90
18412;DHT22;27097;51.738;19.472;2022-08-04T07:51:39;26.20;68.20
18412;DHT22;27097;51.738;19.472;2022-08-04T07:54:07;26.20;68.00
18412;DHT22;27097;51.738;19.472;2022-08-04T07:56:37;26.20;68.00
18412;DHT22;27097;51.738;19.472;2022-08-04T07:59:05;26.20;68.70
18412;DHT22;27097;51.738;19.472;2022-08-04T08:01:35;26.20;69.70
18412;DHT22;27097;51.738;19.472;2022-08-04T08:04:05;26.20;68.90
18412;DHT22;27097;51.738;19.472;2022-08-04T08:06:34;26.20;68.40
18412;DHT22;27097;51.738;19.472;2022-08-04T08:09:06;26.20;69.10
18412;DHT22;27097;51.738;19.472;2022-08-04T08:11:34;26.20;68.10
18412;DHT22;27097;51.738;19.472;2022-08-04T08:14:01;26.30;66.70
18412;DHT22;27097;51.738;19.472;2022-08-04T08:16:28;26.30;67.80
18412;DHT22;27097;51.738;19.472;2022-08-04T08:19:00;26.30;66.40
18412;DHT22;27097;51.738;19.472;2022-08-04T08:21:27;26.30;67.70
18412;DHT22;27097;51.738;19.472;2022-08-04T08:23:55;26.30;68.10
18412;DHT22;27097;51.738;19.472;2022-08-04T08:26:22;26.30;66.20
18412;DHT22;27097;51.738;19.472;2022-08-04T08:28:49;26.40;67.20
18412;DHT22;27097;51.738;19.472;2022-08-04T08:31:17;26.40;65.40
18412;DHT22;27097;51.738;19.472;2022-08-04T08:33:45;26.40;66.90
18412;DHT22;27097;51.738;19.472;2022-08-04T08:36:18;26.40;67.60
18412;DHT22;27097;51.738;19.472;2022-08-04T08:38:53;26.40;65.80
18412;DHT22;27097;51.738;19.472;2022-08-04T08:48:10;26.50;64.50
18412;DHT22;27097;51.738;19.472;2022-08-04T08:51:07;26.50;64.40
18412;DHT22;27097;51.738;19.472;2022-08-04T08:53:58;26.50;64.70
18412;DHT22;27097;51.738;19.472;2022-08-04T08:56:35;26.50;63.00
18412;DHT22;27097;51.738;19.472;2022-08-04T08:59:19;26.50;63.40
18412;DHT22;27097;51.738;19.472;2022-08-04T09:02:01;26.50;62.90
18412;DHT22;27097;51.738;19.472;2022-08-04T09:04:41;26.50;62.80
18412;DHT22;27097;51.738;19.472;2022-08-04T09:10:21;26.60;61.00
18412;DHT22;27097;51.738;19.472;2022-08-04T09:12:55;26.60;62.10
18412;DHT22;27097;51.738;19.472;2022-08-04T09:15:30;26.60;62.30
18412;DHT22;27097;51.738;19.472;2022-08-04T09:18:03;26.60;61.30
18412;DHT22;27097;51.738;19.472;2022-08-04T09:20:36;26.50;62.20
18412;DHT22;27097;51.738;19.472;2022-08-04T09:23:19;26.60;61.40
18412;DHT22;27097;51.738;19.472;2022-08-04T09:25:59;26.60;62.50
18412;DHT22;27097;51.738;19.472;2022-08-04T09:28:34;26.50;61.90
18412;DHT22;27097;51.738;19.472;2022-08-04T09:31:06;26.60;62.10
18412;DHT22;27097;51.738;19.472;2022-08-04T09:33:43;26.60;62.60
18412;DHT22;27097;51.738;19.472;2022-08-04T09:36:22;26.60;62.60
18412;DHT22;27097;51.738;19.472;2022-08-04T09:39:02;26.60;61.30
18412;DHT22;27097;51.738;19.472;2022-08-04T09:41:36;26.60;61.80
18412;DHT22;27097;51.738;19.472;2022-08-04T09:44:17;26.60;61.60
18412;DHT22;27097;51.738;19.472;2022-08-04T09:46:50;26.60;61.60
18412;DHT22;27097;51.738;19.472;2022-08-04T09:49:26;26.60;59.90
18412;DHT22;27097;51.738;19.472;2022-08-04T09:52:03;26.60;58.90
18412;DHT22;27097;51.738;19.472;2022-08-04T09:54:41;26.70;59.40
18412;DHT22;27097;51.738;19.472;2022-08-04T09:57:16;26.70;58.70
18412;DHT22;27097;51.738;19.472;2022-08-04T09:59:56;26.70;58.40
18412;DHT22;27097;51.738;19.472;2022-08-04T10:02:24;26.80;57.70
18412;DHT22;27097;51.738;19.472;2022-08-04T10:04:54;26.80;57.20
18412;DHT22;27097;51.738;19.472;2022-08-04T10:07:35;26.80;56.10
18412;DHT22;27097;51.738;19.472;2022-08-04T10:10:18;26.80;57.00
18412;DHT22;27097;51.738;19.472;2022-08-04T10:13:17;26.80;57.50
18412;DHT22;27097;51.738;19.472;2022-08-04T10:15:55;26.80;56.60
18412;DHT22;27097;51.738;19.472;2022-08-04T10:18:39;26.80;57.00
18412;DHT22;27097;51.738;19.472;2022-08-04T10:21:14;26.80;57.30
18412;DHT22;27097;51.738;19.472;2022-08-04T10:23:56;26.90;57.60
18412;DHT22;27097;51.738;19.472;2022-08-04T10:26:34;26.80;57.30
18412;DHT22;27097;51.738;19.472;2022-08-04T10:29:05;26.80;57.30
18412;DHT22;27097;51.738;19.472;2022-08-04T10:31:38;26.80;57.70
18412;DHT22;27097;51.738;19.472;2022-08-04T10:34:11;26.90;57.50
18412;DHT22;27097;51.738;19.472;2022-08-04T10:36:50;26.90;57.80
18412;DHT22;27097;51.738;19.472;2022-08-04T10:39:23;26.90;57.00
18412;DHT22;27097;51.738;19.472;2022-08-04T10:41:58;26.90;55.60
18412;DHT22;27097;51.738;19.472;2022-08-04T10:44:37;26.90;56.70
18412;DHT22;27097;51.738;19.472;2022-08-04T10:47:13;26.90;56.60
18412;DHT22;27097;51.738;19.472;2022-08-04T10:49:44;26.90;57.10
18412;DHT22;27097;51.738;19.472;2022-08-04T10:52:17;27.00;55.80
18412;DHT22;27097;51.738;19.472;2022-08-04T10:54:50;27.00;56.80
18412;DHT22;27097;51.738;19.472;2022-08-04T10:57:22;27.00;55.40
18412;DHT22;27097;51.738;19.472;2022-08-04T10:59:59;27.00;56.00
18412;DHT22;27097;51.738;19.472;2022-08-04T11:02:40;27.00;56.00
18412;DHT22;27097;51.738;19.472;2022-08-04T11:05:17;27.00;56.60
18412;DHT22;27097;51.738;19.472;2022-08-04T11:07:49;27.00;56.00
18412;DHT22;27097;51.738;19.472;2022-08-04T11:10:20;27.00;55.20
18412;DHT22;27097;51.738;19.472;2022-08-04T11:12:53;27.10;54.40
18412;DHT22;27097;51.738;19.472;2022-08-04T11:15:26;27.10;55.60
18412;DHT22;27097;51.738;19.472;2022-08-04T11:18:00;27.10;55.70
18412;DHT22;27097;51.738;19.472;2022-08-04T11:20:29;27.10;55.30
18412;DHT22;27097;51.738;19.472;2022-08-04T11:23:04;27.10;55.20
18412;DHT22;27097;51.738;19.472;2022-08-04T11:25:39;27.10;54.90
18412;DHT22;27097;51.738;19.472;2022-08-04T11:28:12;27.10;55.20
18412;DHT22;27097;51.738;19.472;2022-08-04T11:30:44;27.10;55.40
18412;DHT22;27097;51.738;19.472;2022-08-04T11:33:20;27.10;55.00
18412;DHT22;27097;51.738;19.472;2022-08-04T11:35:54;27.10;54.80
18412;DHT22;27097;51.738;19.472;2022-08-04T11:38:27;27.10;55.10
18412;DHT22;27097;51.738;19.472;2022-08-04T11:41:01;27.10;54.70
18412;DHT22;27097;51.738;19.472;2022-08-04T11:43:35;27.10;54.80
18412;DHT22;27097;51.738;19.472;2022-08-04T11:46:11;27.10;54.00
18412;DHT22;27097;51.738;19.472;2022-08-04T11:48:46;27.10;54.20
18412;DHT22;27097;51.738;19.472;2022-08-04T11:51:17;27.10;53.60
18412;DHT22;27097;51.738;19.472;2022-08-04T11:53:45;27.20;53.90
18412;DHT22;27097;51.738;19.472;2022-08-04T11:56:13;27.20;53.50
18412;DHT22;27097;51.738;19.472;2022-08-04T11:58:42;27.20;53.60
18412;DHT22;27097;51.738;19.472;2022-08-04T12:01:17;27.20;53.90
18412;DHT22;27097;51.738;19.472;2022-08-04T12:04:02;27.20;54.20
18412;DHT22;27097;51.738;19.472;2022-08-04T12:06:37;27.20;53.70
18412;DHT22;27097;51.738;19.472;2022-08-04T12:09:13;27.20;53.50
18412;DHT22;27097;51.738;19.472;2022-08-04T12:11:53;27.20;52.80
18412;DHT22;27097;51.738;19.472;2022-08-04T12:17:17;27.20;52.80
18412;DHT22;27097;51.738;19.472;2022-08-04T12:19:50;27.10;53.00
18412;DHT22;27097;51.738;19.472;2022-08-04T12:22:20;27.10;53.50
18412;DHT22;27097;51.738;19.472;2022-08-04T12:24:52;27.10;52.70
18412;DHT22;27097;51.738;19.472;2022-08-04T12:27:24;27.10;53.10
18412;DHT22;27097;51.738;19.472;2022-08-04T12:29:54;27.10;53.30
18412;DHT22;27097;51.738;19.472;2022-08-04T12:32:27;27.10;53.90
18412;DHT22;27097;51.738;19.472;2022-08-04T12:35:06;27.10;53.60
18412;DHT22;27097;51.738;19.472;2022-08-04T12:37:43;27.10;53.60
18412;DHT22;27097;51.738;19.472;2022-08-04T12:40:15;27.10;52.90
18412;DHT22;27097;51.738;19.472;2022-08-04T12:42:46;27.10;52.90
18412;DHT22;27097;51.738;19.472;2022-08-04T12:45:16;27.10;53.10
18412;DHT22;27097;51.738;19.472;2022-08-04T12:47:45;27.10;53.50
18412;DHT22;27097;51.738;19.472;2022-08-04T12:50:14;27.30;52.50
18412;DHT22;27097;51.738;19.472;2022-08-04T12:52:46;27.70;51.80
18412;DHT22;27097;51.738;19.472;2022-08-04T12:55:14;27.90;51.40
18412;DHT22;27097;51.738;19.472;2022-08-04T12:57:43;27.90;50.30
18412;DHT22;27097;51.738;19.472;2022-08-04T13:00:22;27.80;51.00
18412;DHT22;27097;51.738;19.472;2022-08-04T13:02:52;27.70;51.80
18412;DHT22;27097;51.738;19.472;2022-08-04T13:05:21;27.50;52.20
18412;DHT22;27097;51.738;19.472;2022-08-04T13:07:50;27.40;51.40
18412;DHT22;27097;51.738;19.472;2022-08-04T13:10:21;27.40;52.80
18412;DHT22;27097;51.738;19.472;2022-08-04T13:12:54;27.30;53.50
18412;DHT22;27097;51.738;19.472;2022-08-04T13:15:23;27.20;53.30
18412;DHT22;27097;51.738;19.472;2022-08-04T13:17:55;27.10;53.80
18412;DHT22;27097;51.738;19.472;2022-08-04T13:20:27;27.10;53.60
18412;DHT22;27097;51.738;19.472;2022-08-04T13:23:05;27.10;53.50
18412;DHT22;27097;51.738;19.472;2022-08-04T13:25:34;27.10;53.90
18412;DHT22;27097;51.738;19.472;2022-08-04T13:28:05;27.00;53.30
18412;DHT22;27097;51.738;19.472;2022-08-04T13:30:38;27.00;53.40
18412;DHT22;27097;51.738;19.472;2022-08-04T13:33:07;27.00;53.60
18412;DHT22;27097;51.738;19.472;2022-08-04T13:35:35;27.00;53.30
18412;DHT22;27097;51.738;19.472;2022-08-04T13:38:10;27.00;53.10
18412;DHT22;27097;51.738;19.472;2022-08-04T13:40:38;27.00;52.80
18412;DHT22;27097;51.738;19.472;2022-08-04T13:43:08;27.00;52.70
18412;DHT22;27097;51.738;19.472;2022-08-04T13:45:37;27.00;52.10
18412;DHT22;27097;51.738;19.472;2022-08-04T13:48:09;27.00;52.40
18412;DHT22;27097;51.738;19.472;2022-08-04T13:50:37;27.00;53.10
18412;DHT22;27097;51.738;19.472;2022-08-04T13:53:04;27.00;53.10
18412;DHT22;27097;51.738;19.472;2022-08-04T13:55:33;26.90;53.80
18412;DHT22;27097;51.738;19.472;2022-08-04T13:58:06;26.90;53.10
18412;DHT22;27097;51.738;19.472;2022-08-04T14:00:44;26.90;53.10
18412;DHT22;27097;51.738;19.472;2022-08-04T14:03:21;26.90;53.40
18412;DHT22;27097;51.738;19.472;2022-08-04T14:06:08;26.90;52.20
18412;DHT22;27097;51.738;19.472;2022-08-04T14:08:48;26.90;53.20
18412;DHT22;27097;51.738;19.472;2022-08-04T14:11:18;26.90;53.20
18412;DHT22;27097;51.738;19.472;2022-08-04T14:13:45;26.90;52.20
18412;DHT22;27097;51.738;19.472;2022-08-04T14:16:15;26.90;53.20
18412;DHT22;27097;51.738;19.472;2022-08-04T14:18:44;26.90;53.40
18412;DHT22;27097;51.738;19.472;2022-08-04T14:21:12;26.90;53.90
18412;DHT22;27097;51.738;19.472;2022-08-04T14:23:42;26.90;52.50
18412;DHT22;27097;51.738;19.472;2022-08-04T14:26:14;26.90;52.70
18412;DHT22;27097;51.738;19.472;2022-08-04T14:28:42;26.90;52.10
18412;DHT22;27097;51.738;19.472;2022-08-04T14:31:10;26.90;53.60
18412;DHT22;27097;51.738;19.472;2022-08-04T14:33:39;26.90;53.60
18412;DHT22;27097;51.738;19.472;2022-08-04T14:36:09;26.90;52.20
18412;DHT22;27097;51.738;19.472;2022-08-04T14:38:44;26.90;52.90
18412;DHT22;27097;51.738;19.472;2022-08-04T14:41:12;26.90;53.00
18412;DHT22;27097;51.738;19.472;2022-08-04T14:43:45;26.90;53.40
18412;DHT22;27097;51.738;19.472;2022-08-04T14:46:13;26.90;52.20
18412;DHT22;27097;51.738;19.472;2022-08-04T14:48:59;26.90;53.50
18412;DHT22;27097;51.738;19.472;2022-08-04T14:51:33;26.90;53.30
18412;DHT22;27097;51.738;19.472;2022-08-04T14:54:00;26.90;53.40
18412;DHT22;27097;51.738;19.472;2022-08-04T14:56:28;26.90;52.00
18412;DHT22;27097;51.738;19.472;2022-08-04T14:59:06;26.90;52.20
18412;DHT22;27097;51.738;19.472;2022-08-04T15:01:34;26.90;52.10
18412;DHT22;27097;51.738;19.472;2022-08-04T15:04:03;26.90;52.50
18412;DHT22;27097;51.738;19.472;2022-08-04T15:06:32;26.90;53.20
18412;DHT22;27097;51.738;19.472;2022-08-04T15:09:08;26.90;52.50
18412;DHT22;27097;51.738;19.472;2022-08-04T15:11:36;26.90;53.00
18412;DHT22;27097;51.738;19.472;2022-08-04T15:14:03;26.90;53.40
18412;DHT22;27097;51.738;19.472;2022-08-04T15:16:32;26.90;53.40
18412;DHT22;27097;51.738;19.472;2022-08-04T15:18:59;26.80;53.10
18412;DHT22;27097;51.738;19.472;2022-08-04T15:21:28;26.80;53.40
18412;DHT22;27097;51.738;19.472;2022-08-04T15:23:57;26.80;53.50
18412;DHT22;27097;51.738;19.472;2022-08-04T15:26:28;26.80;53.60
18412;DHT22;27097;51.738;19.472;2022-08-04T15:29:00;26.80;53.80
18412;DHT22;27097;51.738;19.472;2022-08-04T15:31:29;26.80;53.30
18412;DHT22;27097;51.738;19.472;2022-08-04T15:34:00;26.80;52.50
18412;DHT22;27097;51.738;19.472;2022-08-04T15:36:34;26.80;52.60
18412;DHT22;27097;51.738;19.472;2022-08-04T15:39:09;26.80;51.80
18412;DHT22;27097;51.738;19.472;2022-08-04T15:41:43;26.80;53.00
18412;DHT22;27097;51.738;19.472;2022-08-04T15:47:13;26.80;53.00
18412;DHT22;27097;51.738;19.472;2022-08-04T15:49:42;26.80;53.00
18412;DHT22;27097;51.738;19.472;2022-08-04T15:52:10;26.80;52.80
18412;DHT22;27097;51.738;19.472;2022-08-04T15:54:39;26.80;52.70
18412;DHT22;27097;51.738;19.472;2022-08-04T15:57:06;26.80;52.60
18412;DHT22;27097;51.738;19.472;2022-08-04T16:00:03;26.80;52.20
18412;DHT22;27097;51.738;19.472;2022-08-04T16:02:39;26.80;53.00
18412;DHT22;27097;51.738;19.472;2022-08-04T16:05:34;26.80;52.70
18412;DHT22;27097;51.738;19.472;2022-08-04T16:08:10;26.80;53.60
18412;DHT22;27097;51.738;19.472;2022-08-04T16:10:40;26.80;53.80
18412;DHT22;27097;51.738;19.472;2022-08-04T16:13:08;26.80;53.00
18412;DHT22;27097;51.738;19.472;2022-08-04T16:15:43;26.80;52.80
18412;DHT22;27097;51.738;19.472;2022-08-04T16:18:18;26.80;52.60
18412;DHT22;27097;51.738;19.472;2022-08-04T16:20:46;26.80;52.60
18412;DHT22;27097;51.738;19.472;2022-08-04T16:26:42;26.80;52.30
18412;DHT22;27097;51.738;19.472;2022-08-04T16:29:35;26.80;52.20
18412;DHT22;27097;51.738;19.472;2022-08-04T16:32:17;26.90;52.00
18412;DHT22;27097;51.738;19.472;2022-08-04T16:34:53;26.80;51.50
18412;DHT22;27097;51.738;19.472;2022-08-04T16:37:23;26.80;51.50
18412;DHT22;27097;51.738;19.472;2022-08-04T16:40:31;26.80;51.30
18412;DHT22;27097;51.738;19.472;2022-08-04T16:43:06;26.80;51.40
18412;DHT22;27097;51.738;19.472;2022-08-04T16:45:48;26.80;51.90
18412;DHT22;27097;51.738;19.472;2022-08-04T16:48:16;26.80;52.20